createdAt,value
2023-05-12T00:02:32.697Z,11.26
2023-05-12T00:07:36.520Z,11.16
2023-05-12T00:12:41.633Z,11.14
2023-05-12T00:17:45.266Z,11.09
2023-05-12T00:22:48.749Z,11.07
2023-05-12T00:27:53.799Z,11.04
2023-05-12T00:32:57.597Z,11.00
2023-05-12T00:38:01.119Z,10.97
2023-05-12T00:43:06.080Z,10.98
2023-05-12T00:48:09.469Z,10.97
2023-05-12T00:53:14.322Z,10.87
2023-05-12T00:58:19.210Z,10.86
2023-05-12T01:03:23.105Z,10.77
2023-05-12T01:08:27.044Z,10.72
2023-05-12T01:13:31.912Z,10.69
2023-05-12T01:18:38.489Z,10.66
2023-05-12T01:23:48.195Z,10.59
2023-05-12T01:28:53.767Z,10.51
2023-05-12T01:33:57.276Z,10.44
2023-05-12T01:39:00.904Z,10.39
2023-05-12T01:44:06.055Z,10.41
2023-05-12T01:49:09.677Z,10.37
2023-05-12T01:54:13.341Z,10.37
2023-05-12T01:59:18.315Z,10.39
2023-05-12T02:04:21.790Z,10.40
2023-05-12T02:09:25.301Z,10.53
2023-05-12T02:14:30.238Z,10.65
2023-05-12T02:19:34.018Z,10.77
2023-05-12T02:24:37.658Z,10.98
2023-05-12T02:29:42.495Z,11.27
2023-05-12T02:34:45.997Z,11.48
2023-05-12T02:39:49.415Z,11.51
2023-05-12T02:44:54.357Z,11.63
2023-05-12T02:49:59.602Z,11.62
2023-05-12T02:55:03.060Z,11.71
2023-05-12T03:00:09.602Z,11.83
2023-05-12T03:05:13.006Z,11.83
2023-05-12T03:10:16.630Z,11.89
2023-05-12T03:15:21.483Z,12.38
2023-05-12T03:20:24.668Z,12.78
2023-05-12T03:25:28.114Z,12.94
2023-05-12T03:30:33.397Z,13.29
2023-05-12T03:35:36.886Z,13.66
2023-05-12T03:40:40.301Z,14.08
2023-05-12T03:45:45.418Z,14.31
2023-05-12T03:50:49.084Z,14.43
2023-05-12T03:55:52.614Z,17.15
2023-05-12T04:01:00.354Z,22.75
2023-05-12T04:06:04.749Z,25.69
2023-05-12T04:11:08.679Z,27.84
2023-05-12T04:16:13.580Z,30.35
2023-05-12T04:21:17.399Z,31.31
2023-05-12T04:26:20.969Z,32.72
2023-05-12T04:31:25.880Z,33.23
2023-05-12T04:36:29.606Z,34.52
2023-05-12T04:41:33.200Z,37.46
2023-05-12T04:46:38.316Z,38.70
2023-05-12T04:51:43.082Z,38.80
2023-05-12T04:56:46.545Z,39.07
2023-05-12T05:01:51.686Z,39.53
2023-05-12T05:06:55.804Z,40.19
2023-05-12T05:11:59.486Z,41.76
2023-05-12T05:17:04.457Z,42.61
2023-05-12T05:22:07.990Z,41.54
2023-05-12T05:27:11.507Z,42.67
2023-05-12T05:32:16.860Z,43.30
2023-05-12T05:37:20.539Z,44.03
2023-05-12T05:42:24.007Z,42.70
2023-05-12T05:47:29.050Z,40.22
2023-05-12T05:52:32.642Z,41.31
2023-05-12T05:57:36.175Z,41.02
2023-05-12T06:02:41.751Z,42.97
2023-05-12T06:07:45.361Z,44.46
2023-05-12T06:12:51.089Z,42.84
2023-05-12T06:17:56.397Z,39.22
2023-05-12T06:22:59.978Z,41.88
2023-05-12T06:28:03.518Z,44.61
2023-05-12T06:33:08.658Z,45.64
2023-05-12T06:38:12.195Z,46.41
2023-05-12T06:43:15.701Z,46.74
2023-05-12T06:48:20.880Z,45.57
2023-05-12T06:53:25.607Z,45.70
2023-05-12T06:58:29.393Z,45.43
2023-05-12T07:03:34.830Z,46.27
2023-05-12T07:08:38.449Z,47.06
2023-05-12T07:13:42.026Z,46.20
2023-05-12T07:18:47.420Z,46.75
2023-05-12T07:23:51.019Z,46.33
2023-05-12T07:28:54.639Z,46.00
2023-05-12T07:33:59.593Z,46.89
2023-05-12T07:39:03.087Z,42.76
2023-05-12T07:44:06.923Z,41.02
2023-05-12T07:49:11.797Z,39.77
2023-05-12T07:54:15.424Z,37.39
2023-05-12T07:59:19.146Z,37.90
2023-05-12T08:04:24.081Z,37.24
2023-05-12T08:09:27.564Z,38.95
2023-05-12T08:14:31.024Z,39.58
2023-05-12T08:19:35.979Z,37.33
2023-05-12T08:24:39.670Z,35.98
2023-05-12T08:29:43.154Z,34.85
2023-05-12T08:34:48.119Z,32.98
2023-05-12T08:39:51.651Z,31.82
2023-05-12T08:44:55.445Z,30.47
2023-05-12T08:50:03.358Z,29.11
2023-05-12T08:55:12.201Z,28.54
2023-05-12T09:00:16.907Z,27.92
2023-05-12T09:05:22.299Z,27.50
2023-05-12T09:10:35.126Z,27.11
2023-05-12T09:15:48.660Z,27.00
2023-05-12T09:20:53.652Z,26.76
2023-05-12T09:26:01.829Z,26.31
2023-05-12T09:31:16.286Z,26.11
2023-05-12T09:36:22.108Z,26.44
2023-05-12T09:41:25.799Z,26.64
2023-05-12T09:46:29.387Z,26.52
2023-05-12T09:51:34.894Z,25.84
2023-05-12T09:56:39.835Z,25.84
2023-05-12T10:01:43.983Z,26.02
2023-05-12T10:06:49.221Z,26.58
2023-05-12T10:11:54.165Z,26.99
2023-05-12T10:16:59.320Z,27.16
2023-05-12T10:22:05.467Z,27.51
2023-05-12T10:27:09.543Z,27.32
2023-05-12T10:32:13.331Z,26.98
2023-05-12T10:37:18.339Z,26.57
2023-05-12T10:42:26.167Z,26.23
2023-05-12T10:47:39.007Z,26.11
2023-05-12T10:52:55.018Z,26.29
2023-05-12T10:58:06.603Z,26.56
2023-05-12T11:08:19.858Z,26.86
2023-05-12T11:13:23.999Z,26.77
2023-05-12T11:18:27.816Z,26.86
2023-05-12T11:23:32.772Z,26.32
2023-05-12T11:28:41.591Z,26.22
2023-05-12T11:33:45.183Z,26.20
2023-05-12T11:38:53.117Z,26.34
2023-05-12T11:43:56.652Z,26.22
2023-05-12T11:49:01.592Z,25.94
2023-05-12T11:54:09.148Z,25.87
2023-05-12T11:59:12.806Z,25.80
2023-05-12T12:04:16.187Z,26.31
2023-05-12T12:09:32.235Z,26.24
2023-05-12T12:14:38.140Z,25.63
2023-05-12T12:19:42.017Z,25.59
2023-05-12T12:24:46.998Z,25.62
2023-05-12T12:29:50.983Z,25.69
2023-05-12T12:34:54.619Z,26.07
2023-05-12T12:39:59.770Z,26.26
2023-05-12T12:45:03.947Z,26.39
2023-05-12T12:50:10.812Z,25.98
2023-05-12T12:55:16.067Z,25.62
2023-05-12T13:00:20.575Z,25.47
2023-05-12T13:05:24.322Z,25.36
2023-05-12T13:10:29.561Z,25.19
2023-05-12T13:15:33.421Z,24.91
2023-05-12T13:20:36.675Z,24.80
2023-05-12T13:25:41.770Z,24.55
2023-05-12T13:30:45.475Z,24.58
2023-05-12T13:35:49.229Z,24.48
2023-05-12T13:40:54.638Z,24.22
2023-05-12T13:45:58.274Z,24.12
2023-05-12T13:51:02.255Z,24.18
2023-05-12T13:56:08.816Z,24.22
2023-05-12T14:01:12.614Z,24.19
2023-05-12T14:06:16.349Z,24.19
2023-05-12T14:11:21.306Z,24.28
2023-05-12T14:16:24.926Z,24.24
2023-05-12T14:21:28.657Z,24.05
2023-05-12T14:26:33.638Z,23.90
2023-05-12T14:31:37.366Z,23.65
2023-05-12T14:36:41.110Z,23.65
2023-05-12T14:41:46.042Z,23.52
2023-05-12T14:46:49.631Z,23.35
2023-05-12T14:51:53.434Z,23.24
2023-05-12T14:56:58.422Z,23.16
2023-05-12T15:02:02.002Z,23.05
2023-05-12T15:07:06.319Z,23.07
2023-05-12T15:12:11.696Z,22.92
2023-05-12T15:17:15.382Z,22.91
2023-05-12T15:22:19.039Z,22.80
2023-05-12T15:27:24.016Z,22.64
2023-05-12T15:32:27.679Z,22.46
2023-05-12T15:37:31.244Z,22.40
2023-05-12T15:42:36.232Z,22.33
2023-05-12T15:47:40.139Z,22.22
2023-05-12T15:52:43.743Z,21.86
2023-05-12T15:57:48.745Z,21.83
2023-05-12T16:02:52.354Z,21.71
2023-05-12T16:07:55.954Z,21.63
2023-05-12T16:13:01.006Z,21.55
2023-05-12T16:18:06.993Z,21.46
2023-05-12T16:23:12.798Z,21.22
2023-05-12T16:28:17.854Z,21.01
2023-05-12T16:33:21.630Z,20.91
2023-05-12T16:38:25.511Z,20.69
2023-05-12T16:43:30.458Z,20.67
2023-05-12T16:48:35.225Z,20.50
2023-05-12T16:53:39.333Z,20.46
2023-05-12T16:58:44.488Z,20.31
2023-05-12T17:03:48.342Z,20.19
2023-05-12T17:08:52.109Z,19.98
2023-05-12T17:13:57.566Z,19.82
2023-05-12T17:24:08.536Z,19.25
2023-05-12T17:29:13.533Z,19.01
2023-05-12T17:34:17.090Z,18.73
2023-05-12T17:39:20.689Z,18.48
2023-05-12T17:44:25.840Z,18.22
2023-05-12T17:49:29.476Z,17.95
2023-05-12T17:54:33.145Z,17.67
2023-05-12T17:59:38.389Z,17.48
2023-05-12T18:04:42.022Z,17.26
2023-05-12T18:09:45.847Z,17.04
2023-05-12T18:14:51.803Z,16.80
2023-05-12T18:19:55.676Z,16.55
2023-05-12T18:24:59.273Z,16.31
2023-05-12T18:30:04.345Z,16.13
2023-05-12T18:35:09.948Z,15.88
2023-05-12T18:40:14.059Z,15.58
2023-05-12T18:45:19.829Z,15.36
2023-05-12T18:50:23.899Z,15.15
2023-05-12T18:55:27.619Z,14.92
2023-05-12T19:00:33.745Z,14.73
2023-05-12T19:05:38.029Z,14.56
2023-05-12T19:10:41.890Z,14.42
2023-05-12T19:15:47.023Z,14.23
2023-05-12T19:20:50.623Z,14.12
2023-05-12T19:25:54.849Z,13.90
2023-05-12T19:31:00.272Z,13.72
2023-05-12T19:36:04.121Z,13.61
2023-05-12T19:41:07.679Z,13.45
2023-05-12T19:46:12.949Z,13.34
2023-05-12T19:51:16.795Z,13.23
2023-05-12T19:56:20.925Z,13.10
2023-05-12T20:01:26.253Z,12.95
2023-05-12T20:06:29.969Z,12.84
2023-05-12T20:11:33.646Z,12.76
2023-05-12T20:16:39.135Z,12.67
2023-05-12T20:21:42.805Z,12.57
2023-05-12T20:26:46.424Z,12.49
2023-05-12T20:31:52.705Z,12.42
2023-05-12T20:36:56.325Z,12.35
2023-05-12T20:42:00.270Z,12.25
2023-05-12T20:47:05.495Z,12.20
2023-05-12T20:52:09.364Z,12.10
2023-05-12T20:57:12.984Z,12.09
2023-05-12T21:02:19.056Z,12.08
2023-05-12T21:07:22.937Z,12.01
2023-05-12T21:12:26.567Z,11.92
2023-05-12T21:17:31.538Z,11.89
2023-05-12T21:22:35.064Z,11.66
2023-05-12T21:27:40.809Z,11.88
2023-05-12T21:32:46.337Z,11.92
2023-05-12T21:37:50.231Z,11.99
2023-05-12T21:42:53.688Z,12.02
2023-05-12T21:47:58.623Z,12.08
2023-05-12T21:53:02.188Z,12.12
2023-05-12T21:58:05.718Z,12.23
2023-05-12T22:03:10.913Z,12.25
2023-05-12T22:08:14.911Z,12.32
2023-05-12T22:13:19.274Z,12.36
2023-05-12T22:18:24.243Z,12.41
2023-05-12T22:23:27.746Z,12.38
2023-05-12T22:28:31.238Z,12.37
2023-05-12T22:33:36.349Z,12.37
2023-05-12T22:38:39.898Z,12.31
2023-05-12T22:43:43.331Z,12.30
2023-05-12T22:48:48.205Z,12.27
2023-05-12T22:53:51.685Z,12.20
2023-05-12T22:58:55.161Z,12.14
2023-05-12T23:04:00.065Z,12.09
2023-05-12T23:09:03.706Z,12.02
2023-05-12T23:14:07.174Z,11.89
2023-05-12T23:19:12.262Z,11.93
2023-05-12T23:24:15.877Z,11.79
2023-05-12T23:29:19.521Z,11.73
2023-05-12T23:34:24.396Z,11.68
2023-05-12T23:39:27.920Z,11.57
2023-05-12T23:44:31.923Z,11.55
2023-05-12T23:49:36.860Z,11.44
2023-05-12T23:54:40.465Z,11.16
2023-05-12T23:59:43.924Z,11.09
